Golden Meadow, LA (70357)

2:23 AM CDT on July 11, 2014 (GMT -0500)
Port Fourchon Terminal (KXPY) Elev 7 ft | 29.12 °N, 90.20 °W | Change Station

Current weather conditions updated 8 minutes ago

Clear
Clear
84 °F
Feels Like 91 °F
N
0
Wind Variable Wind from North

Today is forecast to be nearly the same temperature as yesterday. Showers and thunderstorms late.

Today
High -- | Low -- °F
--% Chance of Precip.
Yesterday
High -- | Low -- °F
Precip. -- in
6:09 AM 8:03 PM
Waxing Gibbous, 98% visible
Pressure 30.10 in
Visibility 10.0 miles
Clouds Clear
Heat Index 91 °F
Dew Point 73 °F
Humidity 70%
Rainfall 0.00 in
Snow Depth Not available.
UV 0 out of 12
Pollen 2.80 out of 12
Air Quality Not available.
Flu Activity Sporadic
METAR KXPY 110715Z AUTO 00000KT 10SM CLR 29/23 A3010 RMK A01

More Conditions Fewer Conditions

Pressure 30.10 in
Visibility 10.0 miles
Clouds Clear
Heat Index 91 °F
Dew Point 73 °F
Humidity 70%
Rainfall 0.00 in
Snow Depth Not available.
UV 0 out of 12
Pollen 2.80 out of 12
Air Quality Not available.
Flu Activity Sporadic
METAR KXPY 110715Z AUTO 00000KT 10SM CLR 29/23 A3010 RMK A01

More Conditions Fewer Conditions

10-Day Weather Forecast

Almanac

Astronomy

Jul. 11, 2014 Rise Set
Actual Time 6:09 AM CDT 8:03 PM CDT
Civil Twilight 5:42 AM CDT 8:30 PM CDT
Nautical Twilight 5:10 AM CDT 9:02 PM CDT
Astronomical Twilight 4:35 AM CDT 9:36 PM CDT
Moon 7:19 PM CDT 5:17 AM CDT
Length of Visible Light 14h 47m
Length of Day
13h 53m
Tomorrow will be 0m 45s shorter.
Waxing Gibbous, 98% of the Moon is Illuminated
Today
Waxing Gibbous
Jul 12
Full
Jul 18
Last Quarter
Jul 26
New
Aug 3
First Quarter

Today's Extremes

State Highs State Lows

Community

WunderPhotos

Upload Photos

1,732,407 photos uploaded!

Nearby

Snow Depth

Station Depth Elevation
No new snow has been reported.

Earthquake Activity

City Distance Mag. Time & Date
No recent earthquake activity has been reported nearby.
Minimum magnitude displayed is 2.5.

Coastal Water Temperatures

Place Temperature
Amerada Pass, LA 82.9 °F

Nearby Weather Stations

Station Location Temp. Heat Index Dew Point Humidity Wind Precip. Elev Updated Type
Schoen/Hutchinson Camps, Cocodrie, LA 82.5 °F 91 °F 77 °F 84% SW  at  0.0 mph - / hr 0 ft 2:11 AM CDT Normal
Southeastern Louisiana Weather, Barataria, LA 78.1 °F 81 °F 76 °F 94% SSE  at  0.0 mph 0.00 in / hr 6 ft 2:19 AM CDT Normal

Show More Stations Show Fewer Stations